createdAt,value
2023-02-19T00:02:17.767Z,10.10
2023-02-19T00:04:44.773Z,10.10
2023-02-19T00:07:11.828Z,10.00
2023-02-19T00:09:38.852Z,10.10
2023-02-19T00:12:06.193Z,10.10
2023-02-19T00:14:33.275Z,10.10
2023-02-19T00:17:00.335Z,10.00
2023-02-19T00:19:28.501Z,10.10
2023-02-19T00:21:58.378Z,10.10
2023-02-19T00:24:25.425Z,10.10
2023-02-19T00:26:52.556Z,10.10
2023-02-19T00:29:21.777Z,10.10
2023-02-19T00:31:49.780Z,10.10
2023-02-19T00:34:17.043Z,10.00
2023-02-19T00:36:44.107Z,10.10
2023-02-19T00:39:15.773Z,10.00
2023-02-19T00:41:43.748Z,10.10
2023-02-19T00:44:11.812Z,10.10
2023-02-19T00:46:40.524Z,10.10
2023-02-19T00:49:13.457Z,10.00
2023-02-19T00:51:40.568Z,10.10
2023-02-19T00:54:07.629Z,10.00
2023-02-19T00:56:34.726Z,10.00
2023-02-19T00:59:01.922Z,10.00
2023-02-19T01:01:29.045Z,10.00
2023-02-19T01:03:56.288Z,10.00
2023-02-19T01:06:23.402Z,10.00
2023-02-19T01:08:50.983Z,10.00
2023-02-19T01:11:18.725Z,10.00
2023-02-19T01:13:45.752Z,9.90
2023-02-19T01:16:24.894Z,9.90
2023-02-19T01:18:52.444Z,9.90
2023-02-19T01:21:25.577Z,9.90
2023-02-19T01:23:53.787Z,9.90
2023-02-19T01:26:23.880Z,9.90
2023-02-19T01:28:51.273Z,9.80
2023-02-19T01:31:21.381Z,9.90
2023-02-19T01:33:54.198Z,9.80
2023-02-19T01:36:21.674Z,9.80
2023-02-19T01:38:49.807Z,9.80
2023-02-19T01:41:22.519Z,9.80
2023-02-19T01:44:18.494Z,9.80
2023-02-19T01:46:48.539Z,9.80
2023-02-19T01:49:18.796Z,9.80
2023-02-19T01:51:49.435Z,9.80
2023-02-19T01:54:23.029Z,9.70
2023-02-19T01:56:51.257Z,9.60
2023-02-19T01:59:18.990Z,9.50
2023-02-19T02:01:46.214Z,9.50
2023-02-19T02:04:15.606Z,9.40
2023-02-19T02:06:57.808Z,9.40
2023-02-19T02:09:46.101Z,9.30
2023-02-19T02:12:13.401Z,9.20
2023-02-19T02:14:46.187Z,9.10
2023-02-19T02:17:26.656Z,9.00
2023-02-19T02:20:12.563Z,9.00
2023-02-19T02:22:49.581Z,8.90
2023-02-19T02:25:17.186Z,8.90
2023-02-19T02:28:07.180Z,8.90
2023-02-19T02:30:49.360Z,8.80
2023-02-19T02:33:28.570Z,8.80
2023-02-19T02:36:01.046Z,8.70
2023-02-19T02:38:32.917Z,8.70
2023-02-19T02:41:00.475Z,8.70
2023-02-19T02:43:28.067Z,8.60
2023-02-19T02:45:55.235Z,8.60
2023-02-19T02:49:06.673Z,8.50
2023-02-19T02:51:43.612Z,8.50
2023-02-19T02:54:44.656Z,8.40
2023-02-19T02:57:15.329Z,8.30
2023-02-19T02:59:52.637Z,8.30
2023-02-19T03:02:26.570Z,8.20
2023-02-19T03:05:36.696Z,8.20
2023-02-19T03:08:19.354Z,8.10
2023-02-19T03:10:58.320Z,8.10
2023-02-19T03:13:49.250Z,8.00
2023-02-19T03:16:42.657Z,8.00
2023-02-19T03:19:19.573Z,7.90
2023-02-19T03:22:14.602Z,7.90
2023-02-19T03:25:15.698Z,7.90
2023-02-19T03:27:44.753Z,7.90
2023-02-19T03:30:24.484Z,7.80
2023-02-19T03:33:08.225Z,7.70
2023-02-19T03:35:41.904Z,7.70
2023-02-19T03:38:42.655Z,7.60
2023-02-19T03:41:32.663Z,7.60
2023-02-19T03:44:09.007Z,7.60
2023-02-19T03:46:42.186Z,7.50
2023-02-19T03:49:18.083Z,7.60
2023-02-19T03:52:11.164Z,7.60
2023-02-19T03:55:24.099Z,7.60
2023-02-19T03:58:10.036Z,7.50
2023-02-19T04:00:55.185Z,7.50
2023-02-19T04:03:41.670Z,7.60
2023-02-19T04:06:19.689Z,7.60
2023-02-19T04:08:52.569Z,7.70
2023-02-19T04:11:21.688Z,7.70
2023-02-19T04:14:00.936Z,7.70
2023-02-19T04:16:29.692Z,7.70
2023-02-19T04:19:05.446Z,7.70
2023-02-19T04:21:35.480Z,7.70
2023-02-19T04:24:09.137Z,7.70
2023-02-19T04:26:36.796Z,7.70
2023-02-19T04:29:04.106Z,7.70
2023-02-19T04:32:12.791Z,7.60
2023-02-19T04:34:40.143Z,7.60
2023-02-19T04:37:07.588Z,7.50
2023-02-19T04:39:34.665Z,7.50
2023-02-19T04:42:02.012Z,7.50
2023-02-19T04:44:29.115Z,7.50
2023-02-19T04:46:56.203Z,7.50
2023-02-19T04:49:23.216Z,7.50
2023-02-19T04:51:50.233Z,7.40
2023-02-19T04:54:17.329Z,7.40
2023-02-19T04:56:44.432Z,7.40
2023-02-19T04:59:11.493Z,7.40
2023-02-19T05:01:38.539Z,7.40
2023-02-19T05:04:05.702Z,7.40
2023-02-19T05:06:32.917Z,7.40
2023-02-19T05:09:00.095Z,7.40
2023-02-19T05:11:27.207Z,7.40
2023-02-19T05:13:56.266Z,7.40
2023-02-19T05:16:23.332Z,7.40
2023-02-19T05:18:50.423Z,7.40
2023-02-19T05:21:17.491Z,7.40
2023-02-19T05:23:44.619Z,7.40
2023-02-19T05:26:20.817Z,7.40
2023-02-19T05:28:52.820Z,7.30
2023-02-19T05:31:21.362Z,7.30
2023-02-19T05:33:51.355Z,7.40
2023-02-19T05:36:20.309Z,7.30
2023-02-19T05:38:48.116Z,7.30
2023-02-19T05:41:34.800Z,7.30
2023-02-19T05:44:01.835Z,7.30
2023-02-19T05:46:30.091Z,7.30
2023-02-19T05:49:00.788Z,7.30
2023-02-19T05:51:28.136Z,7.30
2023-02-19T05:53:56.563Z,7.30
2023-02-19T05:56:39.659Z,7.40
2023-02-19T05:59:14.981Z,7.40
2023-02-19T06:01:42.155Z,7.40
2023-02-19T06:04:10.998Z,7.40
2023-02-19T06:06:39.070Z,7.40
2023-02-19T06:09:06.974Z,7.40
2023-02-19T06:11:34.306Z,7.40
2023-02-19T06:14:01.434Z,7.40
2023-02-19T06:16:29.392Z,7.40
2023-02-19T06:18:56.929Z,7.40
2023-02-19T06:21:24.099Z,7.40
2023-02-19T06:23:51.329Z,7.40
2023-02-19T06:26:21.611Z,7.40
2023-02-19T06:28:50.510Z,7.40
2023-02-19T06:31:19.048Z,7.40
2023-02-19T06:33:46.465Z,7.40
2023-02-19T06:36:18.808Z,7.50
2023-02-19T06:38:45.913Z,7.50
2023-02-19T06:41:14.148Z,7.50
2023-02-19T06:43:41.878Z,7.40
2023-02-19T06:46:11.308Z,7.50
2023-02-19T06:48:39.943Z,7.40
2023-02-19T06:51:07.405Z,7.40
2023-02-19T06:53:34.389Z,7.40
2023-02-19T06:56:04.594Z,7.40
2023-02-19T06:58:32.723Z,7.40
2023-02-19T07:01:00.206Z,7.40
2023-02-19T07:03:27.293Z,7.40
2023-02-19T07:05:54.462Z,7.40
2023-02-19T07:08:21.662Z,7.40
2023-02-19T07:10:56.568Z,7.30
2023-02-19T07:13:25.173Z,7.30
2023-02-19T07:15:52.548Z,7.30
2023-02-19T07:18:19.581Z,7.30
2023-02-19T07:20:46.659Z,7.30
2023-02-19T07:23:13.595Z,7.30
2023-02-19T07:25:40.698Z,7.30
2023-02-19T07:28:07.811Z,7.20
2023-02-19T07:30:34.964Z,7.20
2023-02-19T07:33:02.320Z,7.20
2023-02-19T07:35:29.364Z,7.10
2023-02-19T07:37:56.457Z,7.10
2023-02-19T07:40:23.514Z,7.10
2023-02-19T07:42:50.562Z,7.10
2023-02-19T07:45:17.885Z,7.10
2023-02-19T07:47:44.960Z,7.00
2023-02-19T07:50:13.972Z,7.00
2023-02-19T07:52:41.062Z,7.00
2023-02-19T07:55:08.230Z,7.00
2023-02-19T07:57:35.258Z,6.90
2023-02-19T08:00:02.568Z,7.00
2023-02-19T08:02:57.873Z,7.00
2023-02-19T08:05:25.043Z,6.90
2023-02-19T08:07:52.192Z,6.90
2023-02-19T08:10:37.622Z,6.90
2023-02-19T08:13:19.741Z,6.90
2023-02-19T08:15:47.433Z,6.90
2023-02-19T08:18:16.336Z,6.90
2023-02-19T08:20:43.986Z,7.00
2023-02-19T08:23:12.395Z,7.00
2023-02-19T08:25:40.366Z,7.10
2023-02-19T08:28:09.193Z,7.10
2023-02-19T08:30:38.432Z,7.20
2023-02-19T08:33:06.907Z,7.20
2023-02-19T08:35:37.074Z,7.30
2023-02-19T08:38:05.574Z,7.40
2023-02-19T08:40:33.755Z,7.40
2023-02-19T08:43:15.333Z,7.40
2023-02-19T08:45:44.484Z,7.40
2023-02-19T08:48:12.469Z,7.50
2023-02-19T08:50:39.687Z,7.50
2023-02-19T08:53:07.270Z,7.50
2023-02-19T08:55:34.579Z,7.50
2023-02-19T08:58:02.003Z,7.60
2023-02-19T09:00:29.094Z,7.60
2023-02-19T09:02:58.313Z,7.60
2023-02-19T09:05:25.386Z,7.70
2023-02-19T09:07:52.941Z,7.70
2023-02-19T09:10:20.371Z,7.70
2023-02-19T09:12:47.513Z,7.80
2023-02-19T09:15:14.616Z,7.80
2023-02-19T09:17:41.626Z,7.90
2023-02-19T09:20:09.356Z,7.90
2023-02-19T09:22:36.953Z,7.90
2023-02-19T09:25:04.232Z,8.00
2023-02-19T09:27:32.408Z,8.10
2023-02-19T09:29:59.689Z,8.20
2023-02-19T09:32:26.687Z,8.20
2023-02-19T09:34:53.755Z,8.30
2023-02-19T09:37:24.893Z,8.30
2023-02-19T09:39:51.938Z,8.40
2023-02-19T09:42:22.384Z,8.40
2023-02-19T09:44:52.333Z,8.50
2023-02-19T09:47:26.285Z,8.50
2023-02-19T09:49:57.543Z,8.60
2023-02-19T09:52:30.713Z,8.70
2023-02-19T09:55:05.370Z,8.80
2023-02-19T09:57:35.602Z,8.80
2023-02-19T10:00:13.329Z,8.90
2023-02-19T10:02:40.404Z,9.00
2023-02-19T10:05:16.221Z,9.10
2023-02-19T10:07:51.368Z,9.20
2023-02-19T10:10:33.430Z,9.20
2023-02-19T10:13:22.260Z,9.30
2023-02-19T10:15:53.030Z,9.30
2023-02-19T10:18:23.693Z,9.40
2023-02-19T10:20:52.592Z,9.40
2023-02-19T10:23:20.146Z,9.40
2023-02-19T10:25:54.234Z,9.40
2023-02-19T10:28:25.370Z,9.50
2023-02-19T10:30:55.888Z,9.50
2023-02-19T10:33:23.859Z,9.50
2023-02-19T10:36:06.371Z,9.60
2023-02-19T10:38:36.371Z,9.80
2023-02-19T10:41:14.422Z,10.00
2023-02-19T10:43:51.280Z,10.10
2023-02-19T10:46:25.646Z,10.20
2023-02-19T10:48:57.032Z,10.30
2023-02-19T10:51:37.539Z,10.30
2023-02-19T10:54:35.458Z,10.30
2023-02-19T10:57:30.119Z,10.20
2023-02-19T11:00:22.975Z,10.20
2023-02-19T11:02:50.011Z,10.30
2023-02-19T11:05:22.315Z,10.30
2023-02-19T11:07:49.592Z,10.40
2023-02-19T11:10:26.683Z,10.40
2023-02-19T11:12:59.487Z,10.50
2023-02-19T11:15:35.218Z,10.50
2023-02-19T11:18:15.286Z,10.60
2023-02-19T11:20:57.672Z,10.70
2023-02-19T11:23:37.166Z,10.90
2023-02-19T11:26:16.043Z,11.00
2023-02-19T11:28:44.332Z,11.20
2023-02-19T11:31:23.316Z,11.40
2023-02-19T11:34:29.334Z,11.50
2023-02-19T11:37:16.613Z,11.60
2023-02-19T11:39:51.406Z,11.60
2023-02-19T11:42:39.695Z,11.60
2023-02-19T11:45:06.628Z,11.70
2023-02-19T11:48:06.058Z,11.60
2023-02-19T11:50:48.145Z,11.60
2023-02-19T11:53:33.316Z,11.60
2023-02-19T11:56:14.165Z,11.60
2023-02-19T11:59:00.958Z,11.50
2023-02-19T12:01:53.030Z,11.50
2023-02-19T12:04:26.117Z,11.60
2023-02-19T12:07:23.113Z,11.70
2023-02-19T12:10:16.913Z,11.90
2023-02-19T12:13:05.649Z,12.20
2023-02-19T12:18:56.369Z,12.40
2023-02-19T12:21:44.337Z,12.40
2023-02-19T12:24:24.476Z,12.40
2023-02-19T12:27:29.546Z,12.40
2023-02-19T12:30:27.666Z,12.40
2023-02-19T12:32:54.603Z,12.30
2023-02-19T12:35:56.674Z,12.30
2023-02-19T12:38:44.725Z,12.30
2023-02-19T12:41:23.665Z,12.20
2023-02-19T12:43:55.853Z,12.10
2023-02-19T12:46:33.425Z,12.10
2023-02-19T12:49:06.374Z,12.10
2023-02-19T12:51:39.338Z,12.10
2023-02-19T12:54:18.278Z,12.10
2023-02-19T12:57:05.735Z,12.10
2023-02-19T12:59:47.167Z,12.00
2023-02-19T13:02:22.996Z,12.00
2023-02-19T13:05:02.273Z,12.00
2023-02-19T13:07:57.288Z,11.90
2023-02-19T13:10:37.739Z,11.90
2023-02-19T13:13:12.408Z,11.90
2023-02-19T13:15:48.478Z,11.90
2023-02-19T13:18:24.185Z,11.90
2023-02-19T13:20:54.938Z,11.90
2023-02-19T13:23:42.616Z,11.90
2023-02-19T13:26:34.186Z,11.90
2023-02-19T13:29:16.616Z,11.80
2023-02-19T13:32:05.231Z,11.80
2023-02-19T13:34:47.988Z,11.70
2023-02-19T13:37:16.361Z,11.70
2023-02-19T13:39:49.958Z,11.60
2023-02-19T13:42:36.607Z,11.60
2023-02-19T13:45:06.422Z,11.60
2023-02-19T13:47:49.353Z,11.60
2023-02-19T13:50:23.268Z,11.60
2023-02-19T13:52:51.970Z,11.60
2023-02-19T13:55:47.254Z,11.60
2023-02-19T13:58:33.246Z,11.60
2023-02-19T14:01:05.612Z,11.60
2023-02-19T14:03:53.147Z,11.60
2023-02-19T14:06:20.375Z,11.60
2023-02-19T14:08:58.668Z,11.60
2023-02-19T14:11:47.666Z,11.60
2023-02-19T14:14:50.072Z,11.60
2023-02-19T14:17:41.969Z,11.60
2023-02-19T14:20:08.969Z,11.60
2023-02-19T14:22:52.751Z,11.70
2023-02-19T14:25:31.970Z,11.70
2023-02-19T14:28:16.999Z,11.70
2023-02-19T14:30:48.104Z,11.70
2023-02-19T14:33:18.145Z,11.70
2023-02-19T14:35:48.949Z,11.70
2023-02-19T14:38:30.561Z,11.70
2023-02-19T14:40:58.627Z,11.70
2023-02-19T14:43:26.971Z,11.70
2023-02-19T14:46:19.286Z,11.70
2023-02-19T14:48:49.343Z,11.70
2023-02-19T14:51:33.599Z,11.70
2023-02-19T14:54:09.649Z,11.70
2023-02-19T14:56:37.347Z,11.70
2023-02-19T14:59:21.017Z,11.70
2023-02-19T15:01:58.910Z,11.70
2023-02-19T15:04:31.423Z,11.70
2023-02-19T15:07:02.329Z,11.70
2023-02-19T15:09:36.723Z,11.60
2023-02-19T15:12:04.529Z,11.60
2023-02-19T15:14:33.286Z,11.60
2023-02-19T15:17:05.800Z,11.60
2023-02-19T15:19:36.318Z,11.60
2023-02-19T15:22:04.019Z,11.60
2023-02-19T15:24:31.371Z,11.60
2023-02-19T15:26:58.583Z,11.60
2023-02-19T15:29:28.219Z,11.60
2023-02-19T15:31:57.856Z,11.50
2023-02-19T15:34:29.724Z,11.50
2023-02-19T15:37:06.466Z,11.50
2023-02-19T15:39:45.118Z,11.50
2023-02-19T15:42:20.112Z,11.60
2023-02-19T15:45:12.515Z,11.60
2023-02-19T15:47:56.578Z,11.50
2023-02-19T15:50:30.793Z,11.50
2023-02-19T15:53:04.653Z,11.40
2023-02-19T15:55:38.838Z,11.40
2023-02-19T15:58:05.973Z,11.30
2023-02-19T16:00:41.435Z,11.40
2023-02-19T16:03:18.972Z,11.30
2023-02-19T16:05:47.059Z,11.30
2023-02-19T16:08:20.146Z,11.30
2023-02-19T16:10:58.668Z,11.30
2023-02-19T16:13:31.484Z,11.20
2023-02-19T16:16:15.382Z,11.30
2023-02-19T16:18:48.639Z,11.20
2023-02-19T16:21:20.248Z,11.30
2023-02-19T16:23:51.130Z,11.20
2023-02-19T16:26:18.564Z,11.20
2023-02-19T16:28:51.180Z,11.20
2023-02-19T16:31:22.269Z,11.20
2023-02-19T16:33:51.902Z,11.20
2023-02-19T16:36:32.529Z,11.20
2023-02-19T16:39:09.371Z,11.20
2023-02-19T16:41:48.417Z,11.20
2023-02-19T16:44:35.982Z,11.20
2023-02-19T16:47:07.149Z,11.10
2023-02-19T16:49:34.527Z,11.10
2023-02-19T16:52:04.567Z,11.10
2023-02-19T16:54:32.247Z,11.10
2023-02-19T16:56:59.379Z,11.10
2023-02-19T16:59:26.493Z,11.00
2023-02-19T17:01:53.511Z,11.00
2023-02-19T17:04:20.660Z,11.00
2023-02-19T17:06:47.754Z,11.00
2023-02-19T17:09:14.772Z,11.00
2023-02-19T17:11:41.767Z,10.90
2023-02-19T17:14:09.368Z,10.90
2023-02-19T17:16:42.257Z,10.90
2023-02-19T17:19:19.898Z,10.90
2023-02-19T17:21:47.606Z,10.90
2023-02-19T17:24:14.884Z,10.80
2023-02-19T17:26:42.113Z,10.80
2023-02-19T17:29:14.120Z,10.70
2023-02-19T17:31:41.859Z,10.70
2023-02-19T17:34:09.049Z,10.70
2023-02-19T17:36:38.065Z,10.70
2023-02-19T17:39:12.021Z,10.60
2023-02-19T17:41:39.018Z,10.60
2023-02-19T17:44:06.008Z,10.60
2023-02-19T17:46:34.018Z,10.50
2023-02-19T17:49:01.169Z,10.50
2023-02-19T17:51:28.460Z,10.50
2023-02-19T17:53:55.501Z,10.40
2023-02-19T17:56:28.307Z,10.40
2023-02-19T17:58:56.886Z,10.40
2023-02-19T18:01:24.581Z,10.40
2023-02-19T18:03:52.012Z,10.40
2023-02-19T18:06:19.962Z,10.40
2023-02-19T18:08:52.252Z,10.30
2023-02-19T18:11:22.034Z,10.30
2023-02-19T18:13:51.224Z,10.30
2023-02-19T18:16:18.712Z,10.30
2023-02-19T18:18:45.974Z,10.20
2023-02-19T18:21:14.501Z,10.20
2023-02-19T18:23:41.823Z,10.10
2023-02-19T18:26:10.809Z,10.20
2023-02-19T18:28:38.562Z,10.10
2023-02-19T18:31:05.750Z,10.10
2023-02-19T18:33:34.803Z,10.10
2023-02-19T18:36:02.070Z,10.00
2023-02-19T18:38:29.168Z,10.00
2023-02-19T18:40:58.612Z,10.00
2023-02-19T18:43:25.939Z,10.00
2023-02-19T18:45:53.018Z,9.90
2023-02-19T18:48:20.116Z,9.90
2023-02-19T18:50:47.511Z,9.90
2023-02-19T18:53:14.610Z,9.90
2023-02-19T18:55:42.673Z,9.80
2023-02-19T18:58:09.819Z,9.80
2023-02-19T19:00:36.992Z,9.80
2023-02-19T19:03:04.256Z,9.80
2023-02-19T19:05:32.645Z,9.70
2023-02-19T19:08:01.848Z,9.70
2023-02-19T19:10:29.885Z,9.70
2023-02-19T19:12:57.751Z,9.60
2023-02-19T19:15:25.557Z,9.60
2023-02-19T19:17:53.637Z,9.60
2023-02-19T19:20:23.162Z,9.50
2023-02-19T19:22:54.430Z,9.50
2023-02-19T19:25:23.125Z,9.50
2023-02-19T19:27:51.068Z,9.40
2023-02-19T19:30:20.166Z,9.40
2023-02-19T19:32:52.399Z,9.40
2023-02-19T19:35:20.465Z,9.40
2023-02-19T19:37:47.982Z,9.30
2023-02-19T19:40:18.882Z,9.40
2023-02-19T19:42:46.874Z,9.30
2023-02-19T19:45:14.259Z,9.30
2023-02-19T19:47:41.538Z,9.30
2023-02-19T19:50:09.635Z,9.30
2023-02-19T19:52:36.735Z,9.30
2023-02-19T19:55:03.837Z,9.20
2023-02-19T19:57:31.035Z,9.20
2023-02-19T19:59:59.657Z,9.20
2023-02-19T20:02:26.779Z,9.20
2023-02-19T20:04:53.930Z,9.20
2023-02-19T20:07:21.072Z,9.10
2023-02-19T20:09:49.348Z,9.10
2023-02-19T20:12:16.991Z,9.10
2023-02-19T20:14:46.035Z,9.10
2023-02-19T20:17:13.661Z,9.10
2023-02-19T20:19:40.713Z,9.10
2023-02-19T20:22:07.770Z,9.10
2023-02-19T20:24:34.853Z,9.00
2023-02-19T20:27:02.622Z,9.00
2023-02-19T20:29:33.021Z,9.00
2023-02-19T20:32:02.548Z,9.00
2023-02-19T20:34:30.694Z,9.00
2023-02-19T20:36:58.105Z,9.00
2023-02-19T20:39:28.955Z,9.00
2023-02-19T20:41:57.503Z,9.00
2023-02-19T20:44:25.961Z,9.00
2023-02-19T20:46:53.648Z,9.00
2023-02-19T20:49:25.067Z,8.90
2023-02-19T20:51:55.201Z,8.90
2023-02-19T20:54:27.973Z,8.90
2023-02-19T20:56:57.522Z,8.90
2023-02-19T20:59:27.648Z,8.90
2023-02-19T21:01:54.801Z,8.90
2023-02-19T21:04:22.085Z,8.90
2023-02-19T21:06:52.170Z,8.90
2023-02-19T21:09:20.144Z,8.80
2023-02-19T21:11:48.307Z,8.80
2023-02-19T21:14:16.193Z,8.80
2023-02-19T21:16:43.300Z,8.80
2023-02-19T21:19:10.386Z,8.80
2023-02-19T21:21:39.392Z,8.80
2023-02-19T21:24:06.629Z,8.80
2023-02-19T21:26:39.946Z,8.80
2023-02-19T21:29:08.577Z,8.70
2023-02-19T21:31:36.487Z,8.70
2023-02-19T21:34:05.340Z,8.70
2023-02-19T21:36:32.668Z,8.70
2023-02-19T21:39:02.319Z,8.80
2023-02-19T21:41:29.403Z,8.80
2023-02-19T21:43:57.246Z,8.70
2023-02-19T21:46:25.261Z,8.70
2023-02-19T21:48:54.071Z,8.80
2023-02-19T21:51:28.337Z,8.70
2023-02-19T21:53:55.360Z,8.80
2023-02-19T21:56:29.751Z,8.80
2023-02-19T21:58:57.069Z,8.80
2023-02-19T22:01:27.280Z,8.80
2023-02-19T22:03:55.003Z,8.80
2023-02-19T22:06:28.998Z,8.90
2023-02-19T22:08:56.641Z,8.90
2023-02-19T22:11:23.995Z,8.90
2023-02-19T22:13:51.293Z,8.90
2023-02-19T22:16:18.987Z,8.90
2023-02-19T22:18:54.873Z,9.00
2023-02-19T22:21:23.361Z,9.00
2023-02-19T22:23:51.867Z,9.00
2023-02-19T22:26:19.444Z,9.00
2023-02-19T22:28:47.886Z,9.00
2023-02-19T22:31:21.200Z,9.00
2023-02-19T22:33:48.354Z,9.10
2023-02-19T22:36:18.153Z,9.10
2023-02-19T22:38:45.563Z,9.10
2023-02-19T22:41:12.938Z,9.10
2023-02-19T22:43:40.024Z,9.20
2023-02-19T22:46:22.401Z,9.20
2023-02-19T22:48:50.601Z,9.20
2023-02-19T22:51:21.025Z,9.20
2023-02-19T22:53:55.733Z,9.30
2023-02-19T22:56:28.157Z,9.30
2023-02-19T22:58:57.126Z,9.30
2023-02-19T23:01:25.432Z,9.30
2023-02-19T23:03:57.501Z,9.30
2023-02-19T23:06:30.440Z,9.40
2023-02-19T23:08:59.517Z,9.30
2023-02-19T23:11:29.679Z,9.40
2023-02-19T23:13:57.519Z,9.40
2023-02-19T23:16:24.989Z,9.40
2023-02-19T23:18:52.145Z,9.40
2023-02-19T23:21:20.077Z,9.40
2023-02-19T23:23:47.672Z,9.50
2023-02-19T23:26:15.950Z,9.50
2023-02-19T23:28:44.155Z,9.50
2023-02-19T23:31:12.511Z,9.50
2023-02-19T23:33:39.641Z,9.50
2023-02-19T23:36:07.289Z,9.60
2023-02-19T23:38:34.376Z,9.60
2023-02-19T23:41:01.614Z,9.60
2023-02-19T23:43:28.716Z,9.60
2023-02-19T23:45:55.936Z,9.70
2023-02-19T23:48:22.928Z,9.70
2023-02-19T23:50:50.090Z,9.70
2023-02-19T23:53:17.108Z,9.70
2023-02-19T23:55:44.331Z,9.70
2023-02-19T23:58:11.320Z,9.70
